AAY122 KLAS-KGJT
Flight info
| Callsign | AAY122 |
|---|---|
| Flight time | 1h 3m |
| Altitude | 37000 |
| Route | GIDGT3 TUKRR ZUKSO JNC |
| Aircraft | A319/M-SDE3FGHIRWY/LB1 |
Departure
| Time | 2026-05-05 21:36 |
|---|---|
| Airport | Harry Reid International Airport (KLAS) |
Arrival
| Time | 2026-05-05 22:39 |
|---|---|
| Airport | Grand Junction Regional Airport (KGJT) |
| Time | Latitude | Longitude | Altitude | Speed | Heading |
|---|---|---|---|---|---|
| 2026-05-05 21:05 | 36.08488 | -115.15398 | 2126 ft | 0 kts | 336° |
| 2026-05-05 21:18 | 36.08481 | -115.15394 | 2127 ft | 2 kts | 334° |
| 2026-05-05 21:18 | 36.08468 | -115.15386 | 2127 ft | 2 kts | 335° |
| 2026-05-05 21:19 | 36.08454 | -115.15379 | 2127 ft | 2 kts | 335° |
| 2026-05-05 21:19 | 36.08440 | -115.15370 | 2127 ft | 2 kts | 335° |
| 2026-05-05 21:19 | 36.08428 | -115.15363 | 2127 ft | 0 kts | 335° |
| 2026-05-05 21:28 | 36.08436 | -115.15370 | 2127 ft | 2 kts | 310° |
| 2026-05-05 21:28 | 36.08440 | -115.15385 | 2127 ft | 1 kts | 272° |
| 2026-05-05 21:28 | 36.08434 | -115.15404 | 2128 ft | 3 kts | 235° |
| 2026-05-05 21:29 | 36.08406 | -115.15452 | 2130 ft | 8 kts | 229° |
| 2026-05-05 21:29 | 36.08344 | -115.15487 | 2131 ft | 12 kts | 191° |
| 2026-05-05 21:29 | 36.08256 | -115.15455 | 2132 ft | 14 kts | 155° |
| 2026-05-05 21:29 | 36.08154 | -115.15430 | 2133 ft | 15 kts | 189° |
| 2026-05-05 21:30 | 36.08055 | -115.15437 | 2134 ft | 13 kts | 160° |
| 2026-05-05 21:30 | 36.07965 | -115.15388 | 2134 ft | 14 kts | 156° |
| 2026-05-05 21:30 | 36.07868 | -115.15333 | 2134 ft | 15 kts | 152° |
| 2026-05-05 21:30 | 36.07805 | -115.15222 | 2131 ft | 18 kts | 92° |
| 2026-05-05 21:31 | 36.07800 | -115.15054 | 2126 ft | 21 kts | 95° |
| 2026-05-05 21:31 | 36.07787 | -115.14855 | 2118 ft | 24 kts | 95° |
| 2026-05-05 21:31 | 36.07770 | -115.14635 | 2112 ft | 26 kts | 95° |
| 2026-05-05 21:31 | 36.07759 | -115.14404 | 2104 ft | 27 kts | 92° |
| 2026-05-05 21:32 | 36.07755 | -115.14165 | 2096 ft | 27 kts | 90° |
| 2026-05-05 21:32 | 36.07751 | -115.13933 | 2089 ft | 27 kts | 91° |
| 2026-05-05 21:32 | 36.07751 | -115.13720 | 2084 ft | 20 kts | 90° |
| 2026-05-05 21:32 | 36.07758 | -115.13539 | 2078 ft | 22 kts | 89° |
| 2026-05-05 21:33 | 36.07755 | -115.13337 | 2073 ft | 24 kts | 92° |
| 2026-05-05 21:33 | 36.07753 | -115.13123 | 2068 ft | 25 kts | 91° |
| 2026-05-05 21:33 | 36.07752 | -115.12895 | 2064 ft | 26 kts | 90° |
| 2026-05-05 21:33 | 36.07750 | -115.12662 | 2059 ft | 27 kts | 91° |
| 2026-05-05 21:34 | 36.07750 | -115.12436 | 2057 ft | 25 kts | 89° |
| 2026-05-05 21:34 | 36.07752 | -115.12292 | 2055 ft | 13 kts | 98° |
| 2026-05-05 21:34 | 36.07702 | -115.12247 | 2055 ft | 9 kts | 174° |
| 2026-05-05 21:34 | 36.07656 | -115.12250 | 2055 ft | 3 kts | 212° |
| 2026-05-05 21:35 | 36.07644 | -115.12345 | 2056 ft | 34 kts | 269° |
| 2026-05-05 21:35 | 36.07642 | -115.12949 | 2066 ft | 103 kts | 270° |
| 2026-05-05 21:35 | 36.07642 | -115.14077 | 2096 ft | 158 kts | 270° |
| 2026-05-05 21:35 | 36.07648 | -115.15496 | 2573 ft | 164 kts | 270° |
| 2026-05-05 21:36 | 36.07668 | -115.16886 | 3244 ft | 163 kts | 271° |
| 2026-05-05 21:36 | 36.07706 | -115.18259 | 3898 ft | 162 kts | 271° |
| 2026-05-05 21:36 | 36.07752 | -115.19654 | 4406 ft | 168 kts | 270° |
| 2026-05-05 21:36 | 36.07738 | -115.21166 | 4798 ft | 183 kts | 267° |
| 2026-05-05 21:37 | 36.07699 | -115.22814 | 5189 ft | 200 kts | 267° |
| 2026-05-05 21:37 | 36.07671 | -115.24618 | 5591 ft | 217 kts | 268° |
| 2026-05-05 21:37 | 36.07825 | -115.26557 | 5976 ft | 238 kts | 291° |
| 2026-05-05 21:37 | 36.08817 | -115.28198 | 6724 ft | 244 kts | 322° |
| 2026-05-05 21:38 | 36.10381 | -115.29054 | 7305 ft | 258 kts | 346° |
| 2026-05-05 21:38 | 36.12156 | -115.29507 | 7978 ft | 266 kts | 348° |
| 2026-05-05 21:38 | 36.14024 | -115.29632 | 8766 ft | 271 kts | 11° |
| 2026-05-05 21:38 | 36.15740 | -115.28700 | 9558 ft | 275 kts | 38° |
| 2026-05-05 21:39 | 36.17007 | -115.26847 | 10082 ft | 290 kts | 61° |
| 2026-05-05 21:39 | 36.17891 | -115.24556 | 10553 ft | 307 kts | 69° |
| 2026-05-05 21:39 | 36.18663 | -115.21995 | 10995 ft | 325 kts | 71° |
| 2026-05-05 21:39 | 36.19300 | -115.19226 | 11390 ft | 343 kts | 78° |
| 2026-05-05 21:40 | 36.19620 | -115.16270 | 11910 ft | 355 kts | 86° |
| 2026-05-05 21:40 | 36.19659 | -115.13197 | 12718 ft | 358 kts | 89° |
| 2026-05-05 21:40 | 36.19644 | -115.10111 | 13550 ft | 360 kts | 89° |
| 2026-05-05 21:40 | 36.19629 | -115.07034 | 14326 ft | 362 kts | 89° |
| 2026-05-05 21:41 | 36.19620 | -115.03943 | 15076 ft | 364 kts | 88° |
| 2026-05-05 21:41 | 36.19614 | -115.00776 | 15837 ft | 366 kts | 89° |
| 2026-05-05 21:41 | 36.19612 | -114.97626 | 16559 ft | 368 kts | 89° |
| 2026-05-05 21:41 | 36.19609 | -114.94465 | 17246 ft | 370 kts | 88° |
| 2026-05-05 21:42 | 36.19606 | -114.91274 | 17912 ft | 373 kts | 88° |
| 2026-05-05 21:42 | 36.19603 | -114.88102 | 18557 ft | 375 kts | 88° |
| 2026-05-05 21:42 | 36.19599 | -114.84860 | 19161 ft | 378 kts | 88° |
| 2026-05-05 21:42 | 36.19594 | -114.81592 | 19757 ft | 382 kts | 88° |
| 2026-05-05 21:43 | 36.19587 | -114.78301 | 20370 ft | 384 kts | 88° |
| 2026-05-05 21:43 | 36.19582 | -114.75032 | 20948 ft | 387 kts | 88° |
| 2026-05-05 21:43 | 36.19573 | -114.71680 | 21509 ft | 390 kts | 88° |
| 2026-05-05 21:43 | 36.19564 | -114.68335 | 22068 ft | 392 kts | 88° |
| 2026-05-05 21:44 | 36.19556 | -114.64975 | 22636 ft | 394 kts | 88° |
| 2026-05-05 21:44 | 36.19550 | -114.61566 | 23153 ft | 397 kts | 88° |
| 2026-05-05 21:44 | 36.19541 | -114.58115 | 23657 ft | 400 kts | 88° |
| 2026-05-05 21:44 | 36.19532 | -114.54705 | 24108 ft | 403 kts | 88° |
| 2026-05-05 21:45 | 36.19521 | -114.51191 | 24592 ft | 406 kts | 88° |
| 2026-05-05 21:45 | 36.19510 | -114.47729 | 25045 ft | 408 kts | 88° |
| 2026-05-05 21:45 | 36.19499 | -114.44224 | 25461 ft | 411 kts | 88° |
| 2026-05-05 21:45 | 36.19487 | -114.40661 | 25873 ft | 413 kts | 88° |
| 2026-05-05 21:46 | 36.19474 | -114.37113 | 26264 ft | 416 kts | 88° |
| 2026-05-05 21:46 | 36.19458 | -114.33531 | 26667 ft | 418 kts | 88° |
| 2026-05-05 21:46 | 36.19440 | -114.29879 | 27076 ft | 420 kts | 88° |
| 2026-05-05 21:46 | 36.19478 | -114.26257 | 27477 ft | 420 kts | 85° |
| 2026-05-05 21:47 | 36.19666 | -114.22652 | 27813 ft | 423 kts | 83° |
| 2026-05-05 21:47 | 36.20015 | -114.19001 | 28144 ft | 425 kts | 80° |
| 2026-05-05 21:47 | 36.20442 | -114.15377 | 28440 ft | 428 kts | 79° |
| 2026-05-05 21:47 | 36.20874 | -114.11774 | 28750 ft | 430 kts | 79° |
| 2026-05-05 21:48 | 36.21317 | -114.08072 | 29081 ft | 432 kts | 79° |
| 2026-05-05 21:48 | 36.21755 | -114.04404 | 29512 ft | 431 kts | 79° |
| 2026-05-05 21:48 | 36.22186 | -114.00777 | 29976 ft | 429 kts | 79° |
| 2026-05-05 21:48 | 36.22616 | -113.97151 | 30406 ft | 427 kts | 79° |
| 2026-05-05 21:49 | 36.23050 | -113.93490 | 30701 ft | 428 kts | 79° |
| 2026-05-05 21:49 | 36.23480 | -113.89870 | 30872 ft | 431 kts | 80° |
| 2026-05-05 21:49 | 36.23918 | -113.86153 | 31033 ft | 436 kts | 80° |
| 2026-05-05 21:49 | 36.24347 | -113.82471 | 31242 ft | 438 kts | 80° |
| 2026-05-05 21:50 | 36.24786 | -113.78712 | 31475 ft | 439 kts | 80° |
| 2026-05-05 21:50 | 36.25219 | -113.74999 | 31641 ft | 443 kts | 80° |
| 2026-05-05 21:50 | 36.25661 | -113.71199 | 31799 ft | 447 kts | 80° |
| 2026-05-05 21:50 | 36.26103 | -113.67396 | 31995 ft | 450 kts | 80° |
| 2026-05-05 21:51 | 36.26546 | -113.63563 | 32196 ft | 452 kts | 81° |
| 2026-05-05 21:51 | 36.26992 | -113.59687 | 32409 ft | 455 kts | 81° |
| 2026-05-05 21:51 | 36.27441 | -113.55780 | 32632 ft | 456 kts | 81° |
| 2026-05-05 21:51 | 36.27882 | -113.51929 | 32840 ft | 459 kts | 81° |
| 2026-05-05 21:52 | 36.28780 | -113.44054 | 33182 ft | 464 kts | 82° |
| 2026-05-05 21:52 | 36.29228 | -113.40101 | 33358 ft | 467 kts | 82° |
| 2026-05-05 21:52 | 36.29675 | -113.36147 | 33573 ft | 469 kts | 82° |
| 2026-05-05 21:53 | 36.30132 | -113.32079 | 33819 ft | 470 kts | 82° |
| 2026-05-05 21:53 | 36.30636 | -113.28297 | 34079 ft | 470 kts | 79° |
| 2026-05-05 21:53 | 36.31342 | -113.24335 | 34376 ft | 470 kts | 76° |
| 2026-05-05 21:53 | 36.32227 | -113.20445 | 34657 ft | 470 kts | 72° |
| 2026-05-05 21:54 | 36.33300 | -113.16610 | 34941 ft | 469 kts | 69° |
| 2026-05-05 21:54 | 36.34531 | -113.12900 | 35219 ft | 469 kts | 66° |
| 2026-05-05 21:54 | 36.35848 | -113.09171 | 35449 ft | 469 kts | 66° |
| 2026-05-05 21:54 | 36.37158 | -113.05492 | 35615 ft | 471 kts | 66° |
| 2026-05-05 21:55 | 36.38486 | -113.01762 | 35763 ft | 473 kts | 66° |
| 2026-05-05 21:55 | 36.39809 | -112.98020 | 35915 ft | 475 kts | 66° |
| 2026-05-05 21:55 | 36.41133 | -112.94258 | 36098 ft | 476 kts | 66° |
| 2026-05-05 21:55 | 36.42442 | -112.90526 | 36279 ft | 477 kts | 66° |
| 2026-05-05 21:56 | 36.43762 | -112.86762 | 36404 ft | 479 kts | 66° |
| 2026-05-05 21:56 | 36.45094 | -112.82957 | 36527 ft | 481 kts | 66° |
| 2026-05-05 21:56 | 36.46423 | -112.79147 | 36697 ft | 481 kts | 66° |
| 2026-05-05 21:56 | 36.47752 | -112.75339 | 36828 ft | 483 kts | 67° |
| 2026-05-05 21:57 | 36.49092 | -112.71487 | 36919 ft | 485 kts | 66° |
| 2026-05-05 21:57 | 36.51754 | -112.63825 | 36975 ft | 486 kts | 67° |
| 2026-05-05 21:58 | 36.54426 | -112.56121 | 36978 ft | 488 kts | 66° |
| 2026-05-05 21:58 | 36.57109 | -112.48361 | 36975 ft | 487 kts | 67° |
| 2026-05-05 21:59 | 36.59775 | -112.40633 | 36977 ft | 487 kts | 67° |
| 2026-05-05 21:59 | 36.62429 | -112.32922 | 36976 ft | 489 kts | 68° |
| 2026-05-05 22:00 | 36.65111 | -112.25108 | 36981 ft | 489 kts | 68° |
| 2026-05-05 22:00 | 36.67760 | -112.17364 | 36973 ft | 488 kts | 68° |
| 2026-05-05 22:01 | 36.70421 | -112.09568 | 36975 ft | 489 kts | 68° |
| 2026-05-05 22:01 | 36.73076 | -112.01771 | 36969 ft | 489 kts | 67° |
| 2026-05-05 22:02 | 36.75729 | -111.93967 | 36954 ft | 490 kts | 67° |
| 2026-05-05 22:02 | 36.78284 | -111.86418 | 36949 ft | 490 kts | 67° |
| 2026-05-05 22:03 | 36.80916 | -111.78626 | 36938 ft | 491 kts | 68° |
| 2026-05-05 22:03 | 36.83840 | -111.70938 | 36939 ft | 491 kts | 60° |
| 2026-05-05 22:04 | 36.87575 | -111.63835 | 36927 ft | 492 kts | 52° |
| 2026-05-05 22:04 | 36.92098 | -111.57461 | 36933 ft | 490 kts | 43° |
| 2026-05-05 22:05 | 36.97041 | -111.51620 | 36921 ft | 489 kts | 41° |
| 2026-05-05 22:05 | 37.01926 | -111.45905 | 36914 ft | 489 kts | 41° |
| 2026-05-05 22:06 | 37.06872 | -111.40075 | 36906 ft | 490 kts | 41° |
| 2026-05-05 22:06 | 37.11808 | -111.34219 | 36922 ft | 490 kts | 42° |
| 2026-05-05 22:07 | 37.16755 | -111.28341 | 36931 ft | 489 kts | 42° |
| 2026-05-05 22:07 | 37.21736 | -111.22406 | 36929 ft | 488 kts | 42° |
| 2026-05-05 22:08 | 37.26619 | -111.16579 | 36936 ft | 487 kts | 42° |
| 2026-05-05 22:08 | 37.31531 | -111.10705 | 36935 ft | 488 kts | 42° |
| 2026-05-05 22:09 | 37.36469 | -111.04788 | 36938 ft | 488 kts | 42° |
| 2026-05-05 22:09 | 37.41330 | -110.98952 | 36932 ft | 486 kts | 42° |
| 2026-05-05 22:10 | 37.46218 | -110.93067 | 36931 ft | 485 kts | 41° |
| 2026-05-05 22:10 | 37.51096 | -110.87192 | 36936 ft | 483 kts | 41° |
| 2026-05-05 22:11 | 37.55956 | -110.81324 | 36930 ft | 484 kts | 42° |
| 2026-05-05 22:11 | 37.60788 | -110.75479 | 36931 ft | 482 kts | 41° |
| 2026-05-05 22:12 | 37.65605 | -110.69645 | 36896 ft | 482 kts | 42° |
| 2026-05-05 22:12 | 37.70414 | -110.63807 | 36926 ft | 481 kts | 42° |
| 2026-05-05 22:13 | 37.75243 | -110.57932 | 36937 ft | 481 kts | 42° |
| 2026-05-05 22:13 | 37.80047 | -110.52074 | 36937 ft | 482 kts | 42° |
| 2026-05-05 22:14 | 37.84872 | -110.46181 | 36932 ft | 483 kts | 42° |
| 2026-05-05 22:14 | 37.89702 | -110.40273 | 36926 ft | 481 kts | 42° |
| 2026-05-05 22:15 | 37.94489 | -110.34407 | 36926 ft | 482 kts | 43° |
| 2026-05-05 22:15 | 37.99322 | -110.28471 | 36933 ft | 481 kts | 43° |
| 2026-05-05 22:16 | 38.04117 | -110.22571 | 36939 ft | 481 kts | 43° |
| 2026-05-05 22:16 | 38.08911 | -110.16659 | 36946 ft | 481 kts | 43° |
| 2026-05-05 22:17 | 38.13706 | -110.10731 | 36933 ft | 481 kts | 42° |
| 2026-05-05 22:17 | 38.18506 | -110.04795 | 36940 ft | 481 kts | 43° |
| 2026-05-05 22:17 | 38.20902 | -110.01824 | 36815 ft | 481 kts | 43° |
| 2026-05-05 22:18 | 38.23180 | -109.98996 | 36573 ft | 477 kts | 43° |
| 2026-05-05 22:18 | 38.25556 | -109.96044 | 36234 ft | 474 kts | 43° |
| 2026-05-05 22:18 | 38.27889 | -109.93142 | 35744 ft | 472 kts | 42° |
| 2026-05-05 22:18 | 38.30235 | -109.90219 | 35274 ft | 469 kts | 42° |
| 2026-05-05 22:19 | 38.32578 | -109.87304 | 34778 ft | 468 kts | 42° |
| 2026-05-05 22:19 | 38.34868 | -109.84448 | 34228 ft | 468 kts | 42° |
| 2026-05-05 22:19 | 38.37192 | -109.81549 | 33608 ft | 467 kts | 42° |
| 2026-05-05 22:19 | 38.39521 | -109.78647 | 32977 ft | 465 kts | 42° |
| 2026-05-05 22:20 | 38.41811 | -109.75787 | 32355 ft | 463 kts | 42° |
| 2026-05-05 22:20 | 38.44096 | -109.72934 | 31729 ft | 460 kts | 43° |
| 2026-05-05 22:20 | 38.46358 | -109.70105 | 31085 ft | 456 kts | 43° |
| 2026-05-05 22:20 | 38.48618 | -109.67272 | 30438 ft | 453 kts | 43° |
| 2026-05-05 22:21 | 38.50851 | -109.64469 | 29684 ft | 449 kts | 43° |
| 2026-05-05 22:21 | 38.53063 | -109.61686 | 28969 ft | 445 kts | 43° |
| 2026-05-05 22:21 | 38.55259 | -109.58921 | 28331 ft | 439 kts | 43° |
| 2026-05-05 22:21 | 38.57387 | -109.56240 | 27915 ft | 433 kts | 43° |
| 2026-05-05 22:22 | 38.59529 | -109.53540 | 27427 ft | 430 kts | 43° |
| 2026-05-05 22:22 | 38.61641 | -109.50877 | 26910 ft | 426 kts | 43° |
| 2026-05-05 22:22 | 38.63742 | -109.48226 | 26390 ft | 422 kts | 43° |
| 2026-05-05 22:22 | 38.65830 | -109.45589 | 25845 ft | 419 kts | 43° |
| 2026-05-05 22:23 | 38.67915 | -109.42956 | 25299 ft | 415 kts | 43° |
| 2026-05-05 22:23 | 38.69957 | -109.40372 | 24738 ft | 411 kts | 43° |
| 2026-05-05 22:23 | 38.71963 | -109.37831 | 24199 ft | 407 kts | 43° |
| 2026-05-05 22:23 | 38.73964 | -109.35298 | 23664 ft | 403 kts | 43° |
| 2026-05-05 22:24 | 38.75961 | -109.32764 | 23126 ft | 400 kts | 44° |
| 2026-05-05 22:24 | 38.77837 | -109.30388 | 22620 ft | 397 kts | 44° |
| 2026-05-05 22:24 | 38.79813 | -109.27876 | 22087 ft | 395 kts | 44° |
| 2026-05-05 22:24 | 38.81650 | -109.25540 | 21596 ft | 393 kts | 44° |
| 2026-05-05 22:25 | 38.83595 | -109.23066 | 21080 ft | 391 kts | 44° |
| 2026-05-05 22:25 | 38.85516 | -109.20618 | 20575 ft | 389 kts | 44° |
| 2026-05-05 22:25 | 38.87434 | -109.18173 | 20071 ft | 388 kts | 44° |
| 2026-05-05 22:25 | 38.89355 | -109.15723 | 19566 ft | 387 kts | 44° |
| 2026-05-05 22:26 | 38.91244 | -109.13313 | 19063 ft | 386 kts | 44° |
| 2026-05-05 22:26 | 38.93154 | -109.10872 | 18549 ft | 386 kts | 44° |
| 2026-05-05 22:26 | 38.95057 | -109.08438 | 18051 ft | 385 kts | 45° |
| 2026-05-05 22:26 | 38.96731 | -109.05926 | 17569 ft | 385 kts | 53° |
| 2026-05-05 22:27 | 38.98161 | -109.03010 | 17079 ft | 385 kts | 62° |
| 2026-05-05 22:27 | 38.99280 | -108.99895 | 16590 ft | 385 kts | 66° |
| 2026-05-05 22:27 | 39.00320 | -108.96672 | 16110 ft | 384 kts | 67° |
| 2026-05-05 22:27 | 39.01320 | -108.93534 | 15611 ft | 383 kts | 67° |
| 2026-05-05 22:28 | 39.02340 | -108.90363 | 15105 ft | 383 kts | 67° |
| 2026-05-05 22:28 | 39.03363 | -108.87211 | 14614 ft | 382 kts | 67° |
| 2026-05-05 22:28 | 39.04391 | -108.84058 | 14145 ft | 380 kts | 67° |
| 2026-05-05 22:28 | 39.05267 | -108.80836 | 13622 ft | 379 kts | 79° |
| 2026-05-05 22:29 | 39.05287 | -108.77495 | 13128 ft | 375 kts | 101° |
| 2026-05-05 22:29 | 39.04484 | -108.74373 | 12673 ft | 370 kts | 114° |
| 2026-05-05 22:29 | 39.03461 | -108.71350 | 12185 ft | 368 kts | 115° |
| 2026-05-05 22:29 | 39.02423 | -108.68322 | 11696 ft | 366 kts | 115° |
| 2026-05-05 22:30 | 39.01410 | -108.65329 | 11209 ft | 364 kts | 114° |
| 2026-05-05 22:30 | 39.00420 | -108.62362 | 10739 ft | 361 kts | 114° |
| 2026-05-05 22:30 | 38.99446 | -108.59414 | 10561 ft | 347 kts | 114° |
| 2026-05-05 22:30 | 38.98526 | -108.56620 | 10465 ft | 331 kts | 114° |
| 2026-05-05 22:31 | 38.97649 | -108.53956 | 10371 ft | 317 kts | 114° |
| 2026-05-05 22:31 | 38.96807 | -108.51403 | 10307 ft | 303 kts | 114° |
| 2026-05-05 22:31 | 38.96008 | -108.48972 | 10257 ft | 289 kts | 114° |
| 2026-05-05 22:31 | 38.95238 | -108.46635 | 10223 ft | 275 kts | 114° |
| 2026-05-05 22:32 | 38.94503 | -108.44407 | 10172 ft | 263 kts | 114° |
| 2026-05-05 22:32 | 38.93803 | -108.42287 | 10128 ft | 253 kts | 114° |
| 2026-05-05 22:32 | 38.93147 | -108.40194 | 10078 ft | 253 kts | 105° |
| 2026-05-05 22:32 | 38.93145 | -108.37980 | 10029 ft | 254 kts | 70° |
| 2026-05-05 22:33 | 38.94133 | -108.36115 | 9681 ft | 251 kts | 36° |
| 2026-05-05 22:33 | 38.95540 | -108.34839 | 9385 ft | 249 kts | 31° |
| 2026-05-05 22:33 | 38.97001 | -108.33577 | 9085 ft | 249 kts | 32° |
| 2026-05-05 22:33 | 38.98541 | -108.32552 | 8721 ft | 244 kts | 5° |
| 2026-05-05 22:34 | 39.00159 | -108.32851 | 8462 ft | 226 kts | 324° |
| 2026-05-05 22:34 | 39.01207 | -108.34220 | 8322 ft | 210 kts | 303° |
| 2026-05-05 22:34 | 39.02007 | -108.35762 | 8149 ft | 203 kts | 302° |
| 2026-05-05 22:34 | 39.02810 | -108.37236 | 7970 ft | 197 kts | 304° |
| 2026-05-05 22:35 | 39.03629 | -108.38627 | 7697 ft | 192 kts | 306° |
| 2026-05-05 22:35 | 39.04435 | -108.39916 | 7410 ft | 179 kts | 306° |
| 2026-05-05 22:35 | 39.05212 | -108.41130 | 7126 ft | 169 kts | 306° |
| 2026-05-05 22:35 | 39.05938 | -108.42247 | 6885 ft | 156 kts | 306° |
| 2026-05-05 22:36 | 39.06614 | -108.43279 | 6659 ft | 142 kts | 306° |
| 2026-05-05 22:36 | 39.07223 | -108.44212 | 6436 ft | 134 kts | 306° |
| 2026-05-05 22:36 | 39.07820 | -108.45126 | 6273 ft | 133 kts | 306° |
| 2026-05-05 22:36 | 39.08419 | -108.46037 | 6094 ft | 132 kts | 304° |
| 2026-05-05 22:37 | 39.09014 | -108.46945 | 5908 ft | 131 kts | 304° |
| 2026-05-05 22:37 | 39.09649 | -108.47797 | 5714 ft | 133 kts | 313° |
| 2026-05-05 22:37 | 39.10277 | -108.48641 | 5487 ft | 130 kts | 305° |
| 2026-05-05 22:37 | 39.10834 | -108.49560 | 5293 ft | 130 kts | 300° |
| 2026-05-05 22:38 | 39.11355 | -108.50509 | 5115 ft | 129 kts | 300° |
| 2026-05-05 22:38 | 39.11861 | -108.51446 | 4916 ft | 127 kts | 300° |
| 2026-05-05 22:38 | 39.12336 | -108.52316 | 4873 ft | 106 kts | 302° |
| 2026-05-05 22:38 | 39.12666 | -108.52924 | 4869 ft | 60 kts | 304° |
| 2026-05-05 22:39 | 39.12897 | -108.53342 | 4862 ft | 55 kts | 306° |
| 2026-05-05 22:39 | 39.13001 | -108.53565 | 4858 ft | 11 kts | 251° |
| 2026-05-05 22:39 | 39.12945 | -108.53620 | 4857 ft | 6 kts | 201° |
| 2026-05-05 22:39 | 39.12915 | -108.53611 | 4857 ft | 5 kts | 139° |
| 2026-05-05 22:40 | 39.12877 | -108.53549 | 4859 ft | 10 kts | 127° |
| 2026-05-05 22:40 | 39.12832 | -108.53472 | 4860 ft | 10 kts | 125° |
| 2026-05-05 22:40 | 39.12788 | -108.53386 | 4862 ft | 12 kts | 124° |
| 2026-05-05 22:40 | 39.12730 | -108.53282 | 4864 ft | 15 kts | 127° |
| 2026-05-05 22:41 | 39.12663 | -108.53162 | 4865 ft | 16 kts | 126° |
| 2026-05-05 22:41 | 39.12586 | -108.53055 | 4866 ft | 15 kts | 166° |
| 2026-05-05 22:41 | 39.12511 | -108.53052 | 4865 ft | 12 kts | 142° |
| 2026-05-05 22:41 | 39.12454 | -108.52959 | 4866 ft | 13 kts | 123° |
| 2026-05-05 22:42 | 39.12384 | -108.52854 | 4866 ft | 6 kts | 209° |
| 2026-05-05 22:42 | 39.12352 | -108.52881 | 4864 ft | 9 kts | 214° |
| 2026-05-05 22:42 | 39.12333 | -108.52900 | 4863 ft | 0 kts | 218° |